createdAt,value
2023-03-13T00:02:15.255Z,97891.59
2023-03-13T00:04:42.636Z,97869.97
2023-03-13T00:07:10.330Z,97865.31
2023-03-13T00:09:37.309Z,97877.81
2023-03-13T00:12:04.366Z,97887.19
2023-03-13T00:14:31.387Z,97889.66
2023-03-13T00:16:59.439Z,97881.97
2023-03-13T00:19:26.430Z,97884.44
2023-03-13T00:21:53.542Z,97876.50
2023-03-13T00:24:20.625Z,97894.66
2023-03-13T00:26:47.844Z,97904.28
2023-03-13T00:29:14.805Z,97904.66
2023-03-13T00:31:42.119Z,97903.34
2023-03-13T00:34:09.837Z,97901.09
2023-03-13T00:36:37.740Z,97909.75
2023-03-13T00:39:05.784Z,97915.13
2023-03-13T00:41:35.858Z,97913.56
2023-03-13T00:44:02.823Z,97916.22
2023-03-13T00:46:31.322Z,97920.25
2023-03-13T00:48:58.504Z,97926.44
2023-03-13T00:51:27.349Z,97930.94
2023-03-13T00:54:02.129Z,97944.97
2023-03-13T00:56:29.602Z,97938.66
2023-03-13T00:58:56.633Z,97942.22
2023-03-13T01:01:27.898Z,97949.72
2023-03-13T01:03:56.437Z,97945.31
2023-03-13T01:06:24.993Z,97942.81
2023-03-13T01:08:52.017Z,97959.47
2023-03-13T01:11:20.648Z,97965.66
2023-03-13T01:13:47.998Z,97971.94
2023-03-13T01:16:16.897Z,97981.47
2023-03-13T01:18:45.355Z,97982.28
2023-03-13T01:21:12.745Z,97987.53
2023-03-13T01:23:39.791Z,97987.75
2023-03-13T01:26:07.532Z,97998.47
2023-03-13T01:28:35.348Z,97994.19
2023-03-13T01:31:10.577Z,98026.47
2023-03-13T01:33:37.432Z,98007.97
2023-03-13T01:36:04.617Z,98016.75
2023-03-13T01:38:31.745Z,98031.00
2023-03-13T01:40:58.709Z,98034.31
2023-03-13T01:43:27.750Z,98036.34
2023-03-13T01:45:59.180Z,98042.50
2023-03-13T01:48:40.613Z,98054.88
2023-03-13T01:51:20.038Z,98059.63
2023-03-13T01:53:49.618Z,98062.09
2023-03-13T01:56:30.052Z,98068.28
2023-03-13T01:59:00.587Z,98067.81
2023-03-13T02:01:28.028Z,98073.97
2023-03-13T02:03:57.236Z,98078.13
2023-03-13T02:06:25.269Z,98081.44
2023-03-13T02:08:55.710Z,98089.63
2023-03-13T02:11:29.447Z,98090.50
2023-03-13T02:14:00.556Z,98095.22
2023-03-13T02:16:28.098Z,98114.44
2023-03-13T02:18:55.076Z,98103.28
2023-03-13T02:21:36.800Z,98116.47
2023-03-13T02:24:23.961Z,98118.13
2023-03-13T02:26:50.840Z,98131.41
2023-03-13T02:29:18.658Z,98130.78
2023-03-13T02:31:47.213Z,98150.75
2023-03-13T02:34:19.136Z,98133.31
2023-03-13T02:36:46.515Z,98153.13
2023-03-13T02:39:14.462Z,98148.13
2023-03-13T02:41:42.606Z,98148.22
2023-03-13T02:44:09.856Z,98172.69
2023-03-13T02:46:50.624Z,98161.41
2023-03-13T02:49:23.911Z,98165.34
2023-03-13T02:51:52.029Z,98163.56
2023-03-13T02:54:28.064Z,98172.22
2023-03-13T02:56:57.148Z,98167.13
2023-03-13T02:59:24.194Z,98179.00
2023-03-13T03:01:54.588Z,98183.16
2023-03-13T03:04:23.588Z,98186.00
2023-03-13T03:06:55.891Z,98190.41
2023-03-13T03:09:22.876Z,98191.44
2023-03-13T03:11:53.891Z,98193.94
2023-03-13T03:14:21.306Z,98190.50
2023-03-13T03:16:49.280Z,98193.13
2023-03-13T03:19:17.020Z,98194.81
2023-03-13T03:21:44.125Z,98199.06
2023-03-13T03:24:11.009Z,98213.91
2023-03-13T03:26:38.006Z,98214.75
2023-03-13T03:29:11.266Z,98219.47
2023-03-13T03:31:39.226Z,98215.16
2023-03-13T03:34:06.232Z,98219.47
2023-03-13T03:36:33.711Z,98237.25
2023-03-13T03:39:01.531Z,98235.81
2023-03-13T03:41:29.995Z,98234.84
2023-03-13T03:43:57.259Z,98243.00
2023-03-13T03:46:29.268Z,98241.13
2023-03-13T03:48:57.072Z,98250.72
2023-03-13T03:51:24.707Z,98250.63
2023-03-13T03:53:54.242Z,98246.47
2023-03-13T03:56:21.277Z,98249.91
2023-03-13T03:58:54.108Z,98262.75
2023-03-13T04:01:33.313Z,98250.72
2023-03-13T04:04:00.793Z,98260.47
2023-03-13T04:06:28.490Z,98257.72
2023-03-13T04:08:56.875Z,98257.13
2023-03-13T04:11:25.960Z,98267.59
2023-03-13T04:13:55.262Z,98278.03
2023-03-13T04:16:22.836Z,98271.94
2023-03-13T04:18:51.176Z,98287.94
2023-03-13T04:21:19.046Z,98281.56
2023-03-13T04:23:57.397Z,98282.31
2023-03-13T04:26:24.780Z,98307.16
2023-03-13T04:28:53.947Z,98297.53
2023-03-13T04:31:33.843Z,98301.22
2023-03-13T04:34:39.026Z,98298.81
2023-03-13T04:37:08.764Z,98309.16
2023-03-13T04:40:02.002Z,98315.81
2023-03-13T04:42:47.348Z,98323.06
2023-03-13T04:45:40.477Z,98322.09
2023-03-13T04:48:33.484Z,98351.53
2023-03-13T04:51:23.541Z,98360.19
2023-03-13T04:53:58.953Z,98357.81
2023-03-13T04:56:44.188Z,98364.06
2023-03-13T04:59:20.488Z,98369.91
2023-03-13T05:01:59.478Z,98380.25
2023-03-13T05:04:56.701Z,98371.88
2023-03-13T05:07:42.295Z,98368.66
2023-03-13T05:10:27.893Z,98376.66
2023-03-13T05:13:15.195Z,98380.34
2023-03-13T05:15:54.313Z,98365.19
2023-03-13T05:18:37.028Z,98395.25
2023-03-13T05:21:14.958Z,98393.69
2023-03-13T05:24:00.723Z,98396.59
2023-03-13T05:26:49.593Z,98409.44
2023-03-13T05:29:39.930Z,98408.06
2023-03-13T05:32:09.410Z,98395.63
2023-03-13T05:34:55.759Z,98414.28
2023-03-13T05:37:41.621Z,98412.19
2023-03-13T05:40:27.124Z,98412.69
2023-03-13T05:43:14.183Z,98419.38
2023-03-13T05:46:07.047Z,98432.84
2023-03-13T05:48:53.526Z,98432.50
2023-03-13T05:51:36.910Z,98425.38
2023-03-13T05:54:26.637Z,98438.25
2023-03-13T05:57:16.573Z,98431.63
2023-03-13T06:00:02.855Z,98438.81
2023-03-13T06:03:05.357Z,98434.78
2023-03-13T06:05:42.956Z,98438.63
2023-03-13T06:08:24.027Z,98440.13
2023-03-13T06:10:51.145Z,98440.88
2023-03-13T06:13:20.245Z,98444.31
2023-03-13T06:15:54.407Z,98452.53
2023-03-13T06:18:51.372Z,98453.78
2023-03-13T06:21:18.326Z,98450.13
2023-03-13T06:23:45.136Z,98456.06
2023-03-13T06:26:12.089Z,98463.22
2023-03-13T06:28:38.940Z,98466.81
2023-03-13T06:31:07.269Z,98466.56
2023-03-13T06:33:34.539Z,98463.25
2023-03-13T06:36:02.339Z,98467.78
2023-03-13T06:38:29.794Z,98473.63
2023-03-13T06:40:56.912Z,98483.47
2023-03-13T06:43:23.905Z,98486.25
2023-03-13T06:45:50.925Z,98496.03
2023-03-13T06:48:18.240Z,98488.88
2023-03-13T06:50:45.227Z,98497.69
2023-03-13T06:53:17.169Z,98499.34
2023-03-13T06:55:44.621Z,98500.78
2023-03-13T06:58:21.759Z,98504.84
2023-03-13T07:00:57.975Z,98504.88
2023-03-13T07:03:25.232Z,98512.72
2023-03-13T07:06:01.249Z,98517.50
2023-03-13T07:08:28.246Z,98517.50
2023-03-13T07:10:58.732Z,98525.34
2023-03-13T07:13:25.886Z,98531.06
2023-03-13T07:15:53.877Z,98516.50
2023-03-13T07:18:21.544Z,98531.53
2023-03-13T07:20:55.445Z,98537.72
2023-03-13T07:23:22.935Z,98534.75
2023-03-13T07:25:57.576Z,98541.41
2023-03-13T07:28:25.100Z,98547.84
2023-03-13T07:30:52.693Z,98549.19
2023-03-13T07:33:19.910Z,98552.00
2023-03-13T07:35:50.778Z,98557.00
2023-03-13T07:38:19.133Z,98565.56
2023-03-13T07:40:49.935Z,98558.06
2023-03-13T07:43:16.947Z,98576.66
2023-03-13T07:45:56.414Z,98566.03
2023-03-13T07:48:24.330Z,98587.97
2023-03-13T07:50:51.517Z,98594.25
2023-03-13T07:53:21.553Z,98591.34
2023-03-13T07:55:54.563Z,98598.03
2023-03-13T07:58:21.563Z,98598.72
2023-03-13T08:00:48.751Z,98612.03
2023-03-13T08:03:15.832Z,98612.41
2023-03-13T08:05:44.913Z,98603.72
2023-03-13T08:08:11.840Z,98605.00
2023-03-13T08:10:40.042Z,98606.91
2023-03-13T08:13:07.096Z,98605.19
2023-03-13T08:15:34.100Z,98608.53
2023-03-13T08:18:00.977Z,98614.13
2023-03-13T08:20:28.040Z,98606.53
2023-03-13T08:22:55.787Z,98617.75
2023-03-13T08:25:22.774Z,98612.00
2023-03-13T08:27:49.739Z,98624.72
2023-03-13T08:30:16.680Z,98619.31
2023-03-13T08:32:43.665Z,98610.53
2023-03-13T08:35:10.798Z,98622.59
2023-03-13T08:37:37.741Z,98604.06
2023-03-13T08:40:10.441Z,98618.56
2023-03-13T08:42:38.233Z,98619.31
2023-03-13T08:45:05.902Z,98625.72
2023-03-13T08:47:33.462Z,98629.31
2023-03-13T08:50:00.389Z,98620.28
2023-03-13T08:52:27.518Z,98628.31
2023-03-13T08:54:54.394Z,98640.47
2023-03-13T08:57:21.920Z,98644.44
2023-03-13T08:59:49.708Z,98652.53
2023-03-13T09:02:20.165Z,98653.25
2023-03-13T09:04:48.525Z,98627.59
2023-03-13T09:07:15.943Z,98652.50
2023-03-13T09:09:42.861Z,98664.66
2023-03-13T09:12:21.364Z,98657.38
2023-03-13T09:14:55.334Z,98651.59
2023-03-13T09:17:22.390Z,98677.66
2023-03-13T09:19:59.632Z,98672.31
2023-03-13T09:22:27.764Z,98675.44
2023-03-13T09:24:54.794Z,98676.97
2023-03-13T09:30:45.779Z,98682.53
2023-03-13T09:33:13.438Z,98672.41
2023-03-13T09:35:41.191Z,98698.53
2023-03-13T09:38:08.228Z,98675.84
2023-03-13T09:40:41.224Z,98680.78
2023-03-13T09:43:17.038Z,98696.56
2023-03-13T09:45:44.966Z,98711.22
2023-03-13T09:48:30.583Z,98726.31
2023-03-13T09:51:00.611Z,98705.06
2023-03-13T09:53:33.447Z,98701.72
2023-03-13T09:56:01.104Z,98712.25
2023-03-13T09:58:28.891Z,98712.81
2023-03-13T10:01:02.387Z,98711.47
2023-03-13T10:03:31.390Z,98706.81
2023-03-13T10:06:00.420Z,98706.69
2023-03-13T10:08:32.615Z,98701.22
2023-03-13T10:11:07.047Z,98716.72
2023-03-13T10:13:46.100Z,98709.16
2023-03-13T10:16:18.929Z,98730.03
2023-03-13T10:18:49.246Z,98731.94
2023-03-13T10:21:20.722Z,98749.50
2023-03-13T10:23:47.745Z,98756.44
2023-03-13T10:26:21.571Z,98746.19
2023-03-13T10:28:50.543Z,98743.78
2023-03-13T10:31:36.963Z,98745.94
2023-03-13T10:34:07.760Z,98751.19
2023-03-13T10:36:43.009Z,98769.56
2023-03-13T10:39:16.912Z,98751.53
2023-03-13T10:41:43.871Z,98767.78
2023-03-13T10:44:18.915Z,98779.38
2023-03-13T10:46:47.057Z,98763.59
2023-03-13T10:49:18.841Z,98770.06
2023-03-13T10:51:50.233Z,98766.97
2023-03-13T10:54:39.557Z,98779.63
2023-03-13T10:57:19.607Z,98787.38
2023-03-13T10:59:48.112Z,98797.16
2023-03-13T11:02:35.829Z,98785.81
2023-03-13T11:05:22.890Z,98824.38
2023-03-13T11:07:50.508Z,98792.16
2023-03-13T11:10:17.783Z,98799.78
2023-03-13T11:12:49.148Z,98801.09
2023-03-13T11:15:17.118Z,98813.50
2023-03-13T11:17:46.730Z,98813.63
2023-03-13T11:20:21.647Z,98800.75
2023-03-13T11:23:08.807Z,98834.78
2023-03-13T11:25:39.039Z,98846.25
2023-03-13T11:28:15.095Z,98811.63
2023-03-13T11:30:53.040Z,98811.50
2023-03-13T11:33:28.096Z,98844.41
2023-03-13T11:35:58.129Z,98847.31
2023-03-13T11:38:33.236Z,98815.56
2023-03-13T11:41:10.848Z,98834.53
2023-03-13T11:43:47.199Z,98862.72
2023-03-13T11:46:26.566Z,98831.91
2023-03-13T11:49:13.258Z,98841.72
2023-03-13T11:51:50.078Z,98857.47
2023-03-13T11:54:23.520Z,98839.44
2023-03-13T11:56:58.639Z,98865.72
2023-03-13T11:59:32.265Z,98887.81
2023-03-13T12:02:02.042Z,98844.31
2023-03-13T12:04:46.897Z,98851.31
2023-03-13T12:07:33.333Z,98866.03
2023-03-13T12:10:19.264Z,98844.88
2023-03-13T12:12:50.532Z,98888.06
2023-03-13T12:15:27.065Z,98874.41
2023-03-13T12:17:55.636Z,98873.56
2023-03-13T12:20:27.706Z,98881.69
2023-03-13T12:23:17.836Z,98872.94
2023-03-13T12:25:51.774Z,98867.91
2023-03-13T12:28:28.666Z,98854.94
2023-03-13T12:31:15.910Z,98875.44
2023-03-13T12:33:57.039Z,98884.50
2023-03-13T12:39:35.303Z,98875.38
2023-03-13T12:44:53.185Z,98877.88
2023-03-13T12:47:34.884Z,98885.66
2023-03-13T12:50:18.181Z,98905.25
2023-03-13T12:52:49.595Z,98910.63
2023-03-13T12:55:30.346Z,98901.06
2023-03-13T12:58:16.051Z,98910.63
2023-03-13T13:00:46.049Z,98890.06
2023-03-13T13:03:19.570Z,98886.88
2023-03-13T13:06:19.086Z,98893.59
2023-03-13T13:09:12.346Z,98892.91
2023-03-13T13:11:39.396Z,98901.31
2023-03-13T13:14:15.967Z,98906.72
2023-03-13T13:16:47.244Z,98903.44
2023-03-13T13:19:23.951Z,98901.56
2023-03-13T13:22:20.586Z,98913.53
2023-03-13T13:24:52.651Z,98909.22
2023-03-13T13:27:46.120Z,98914.03
2023-03-13T13:30:20.203Z,98922.78
2023-03-13T13:35:39.796Z,98955.66
2023-03-13T13:38:27.146Z,98925.31
2023-03-13T13:41:04.087Z,98951.59
2023-03-13T13:43:33.329Z,98937.22
2023-03-13T13:46:22.346Z,98939.84
2023-03-13T13:49:08.635Z,98958.50
2023-03-13T13:51:37.321Z,98945.50
2023-03-13T13:54:16.712Z,98948.22
2023-03-13T13:57:06.732Z,98957.53
2023-03-13T13:59:54.091Z,98991.78
2023-03-13T14:02:21.786Z,98960.16
2023-03-13T14:04:52.866Z,98946.63
2023-03-13T14:07:24.312Z,98963.84
2023-03-13T14:10:03.561Z,98942.00
2023-03-13T14:12:35.128Z,98973.50
2023-03-13T14:15:08.570Z,98935.06
2023-03-13T14:17:43.266Z,98993.06
2023-03-13T14:20:19.448Z,98975.66
2023-03-13T14:22:47.150Z,98970.84
2023-03-13T14:25:14.223Z,98966.44
2023-03-13T14:27:44.816Z,98971.06
2023-03-13T14:30:12.445Z,98959.75
2023-03-13T14:32:41.034Z,98975.28
2023-03-13T14:35:09.382Z,98965.81
2023-03-13T14:37:36.359Z,98987.44
2023-03-13T14:40:21.968Z,98977.78
2023-03-13T14:42:50.333Z,98982.81
2023-03-13T14:45:39.782Z,98994.50
2023-03-13T14:48:06.697Z,98994.59
2023-03-13T14:50:35.119Z,98995.88
2023-03-13T14:53:05.513Z,99012.94
2023-03-13T14:55:36.771Z,99013.19
2023-03-13T14:58:18.857Z,99010.66
2023-03-13T15:00:47.184Z,99006.03
2023-03-13T15:03:17.389Z,99023.69
2023-03-13T15:05:50.560Z,99003.50
2023-03-13T15:08:19.198Z,99019.28
2023-03-13T15:10:47.842Z,99011.47
2023-03-13T15:13:14.768Z,99015.91
2023-03-13T15:15:46.090Z,99044.31
2023-03-13T15:18:19.802Z,99032.22
2023-03-13T15:20:50.968Z,99040.47
2023-03-13T15:23:18.165Z,99032.94
2023-03-13T15:25:45.236Z,99034.56
2023-03-13T15:28:16.688Z,99023.69
2023-03-13T15:30:44.070Z,99018.97
2023-03-13T15:33:15.200Z,99032.06
2023-03-13T15:35:42.772Z,99027.75
2023-03-13T15:38:14.655Z,99033.09
2023-03-13T15:40:44.849Z,99032.59
2023-03-13T15:43:12.452Z,99038.69
2023-03-13T15:45:41.997Z,99039.44
2023-03-13T15:48:17.116Z,99042.06
2023-03-13T15:50:44.499Z,99038.69
2023-03-13T15:53:21.838Z,99055.59
2023-03-13T15:55:49.412Z,99056.56
2023-03-13T15:58:17.149Z,99049.63
2023-03-13T16:00:44.634Z,99062.00
2023-03-13T16:03:16.454Z,99060.25
2023-03-13T16:05:43.553Z,99060.34
2023-03-13T16:08:16.578Z,99072.75
2023-03-13T16:10:48.055Z,99079.88
2023-03-13T16:13:15.006Z,99073.91
2023-03-13T16:15:42.401Z,99071.41
2023-03-13T16:18:13.911Z,99072.69
2023-03-13T16:20:40.841Z,99078.13
2023-03-13T16:23:07.837Z,99073.59
2023-03-13T16:25:34.948Z,99073.59
2023-03-13T16:28:01.931Z,99085.78
2023-03-13T16:30:30.667Z,99083.56
2023-03-13T16:32:58.144Z,99085.03
2023-03-13T16:35:29.515Z,99092.91
2023-03-13T16:37:57.143Z,99095.66
2023-03-13T16:40:32.075Z,99099.22
2023-03-13T16:42:59.416Z,99098.16
2023-03-13T16:45:26.640Z,99094.81
2023-03-13T16:47:53.933Z,99105.31
2023-03-13T16:50:25.993Z,99106.97
2023-03-13T16:52:54.008Z,99110.56
2023-03-13T16:55:21.542Z,99100.16
2023-03-13T16:57:48.532Z,99102.88
2023-03-13T17:00:19.850Z,99106.03
2023-03-13T17:02:47.034Z,99110.97
2023-03-13T17:05:16.048Z,99115.59
2023-03-13T17:07:48.066Z,99107.09
2023-03-13T17:10:20.013Z,99115.16
2023-03-13T17:12:47.542Z,99110.16
2023-03-13T17:15:14.683Z,99112.03
2023-03-13T17:17:41.922Z,99119.91
2023-03-13T17:20:14.451Z,99114.66
2023-03-13T17:22:41.539Z,99117.41
2023-03-13T17:25:09.150Z,99120.13
2023-03-13T17:27:36.300Z,99123.66
2023-03-13T17:30:03.815Z,99121.28
2023-03-13T17:32:30.734Z,99126.28
2023-03-13T17:34:57.714Z,99128.19
2023-03-13T17:37:24.685Z,99123.91
2023-03-13T17:39:51.586Z,99130.09
2023-03-13T17:42:19.133Z,99131.78
2023-03-13T17:44:46.232Z,99136.78
2023-03-13T17:47:17.934Z,99131.53
2023-03-13T17:49:45.129Z,99129.88
2023-03-13T17:52:16.519Z,99130.94
2023-03-13T17:54:44.263Z,99145.06
2023-03-13T17:57:13.790Z,99139.94
2023-03-13T17:59:40.786Z,99138.59
2023-03-13T18:02:11.840Z,99142.13
2023-03-13T18:04:39.122Z,99143.91
2023-03-13T18:07:24.848Z,99140.38
2023-03-13T18:09:51.918Z,99132.59
2023-03-13T18:12:19.301Z,99148.53
2023-03-13T18:14:46.352Z,99139.09
2023-03-13T18:17:16.920Z,99145.41
2023-03-13T18:19:44.414Z,99145.41
2023-03-13T18:22:15.604Z,99148.94
2023-03-13T18:24:42.891Z,99150.84
2023-03-13T18:27:14.572Z,99147.47
2023-03-13T18:29:41.712Z,99147.47
2023-03-13T18:32:10.306Z,99155.31
2023-03-13T18:34:37.362Z,99147.69
2023-03-13T18:37:16.013Z,99154.72
2023-03-13T18:39:43.084Z,99153.88
2023-03-13T18:42:10.744Z,99154.78
2023-03-13T18:44:40.228Z,99148.28
2023-03-13T18:47:14.225Z,99162.88
2023-03-13T18:49:41.225Z,99157.00
2023-03-13T18:52:08.348Z,99162.34
2023-03-13T18:54:35.264Z,99170.09
2023-03-13T18:57:02.369Z,99165.69
2023-03-13T18:59:29.843Z,99172.59
2023-03-13T19:01:57.230Z,99171.88
2023-03-13T19:04:24.101Z,99175.34
2023-03-13T19:06:51.038Z,99176.28
2023-03-13T19:09:42.564Z,99184.88
2023-03-13T19:12:11.413Z,99184.97
2023-03-13T19:14:38.264Z,99180.75
2023-03-13T19:17:07.323Z,99181.81
2023-03-13T19:19:34.376Z,99186.41
2023-03-13T19:22:02.189Z,99184.84
2023-03-13T19:24:29.367Z,99196.25
2023-03-13T19:26:59.108Z,99190.28
2023-03-13T19:29:27.184Z,99188.50
2023-03-13T19:32:00.256Z,99194.69
2023-03-13T19:34:27.289Z,99185.34
2023-03-13T19:36:54.562Z,99184.69
2023-03-13T19:39:25.396Z,99193.38
2023-03-13T19:41:52.941Z,99189.31
2023-03-13T19:44:20.633Z,99195.47
2023-03-13T19:46:48.591Z,99189.31
2023-03-13T19:49:17.123Z,99190.22
2023-03-13T19:51:44.048Z,99194.84
2023-03-13T19:54:11.862Z,99195.69
2023-03-13T19:56:40.689Z,99198.50
2023-03-13T19:59:10.681Z,99194.09
2023-03-13T20:01:37.733Z,99199.25
2023-03-13T20:04:04.700Z,99188.84
2023-03-13T20:06:32.867Z,99195.03
2023-03-13T20:09:03.674Z,99189.06
2023-03-13T20:11:31.188Z,99195.16
2023-03-13T20:13:58.158Z,99195.97
2023-03-13T20:16:27.761Z,99205.50
2023-03-13T20:18:56.130Z,99196.16
2023-03-13T20:21:23.698Z,99208.53
2023-03-13T20:23:50.737Z,99205.81
2023-03-13T20:26:19.401Z,99198.91
2023-03-13T20:28:47.242Z,99191.97
2023-03-13T20:31:14.459Z,99193.75
2023-03-13T20:33:41.526Z,99194.06
2023-03-13T20:36:13.488Z,99194.91
2023-03-13T20:38:41.167Z,99193.13
2023-03-13T20:41:08.678Z,99185.72
2023-03-13T20:43:36.167Z,99188.34
2023-03-13T20:46:03.534Z,99190.25
2023-03-13T20:48:30.652Z,99194.16
2023-03-13T20:50:59.061Z,99186.53
2023-03-13T20:53:27.701Z,99190.28
2023-03-13T20:55:54.642Z,99184.13
2023-03-13T20:58:21.613Z,99175.34
2023-03-13T21:00:48.929Z,99184.25
2023-03-13T21:03:17.449Z,99174.25
2023-03-13T21:05:44.692Z,99179.75
2023-03-13T21:08:11.598Z,99177.53
2023-03-13T21:10:39.650Z,99185.94
2023-03-13T21:13:07.114Z,99172.97
2023-03-13T21:15:34.012Z,99174.06
2023-03-13T21:18:01.205Z,99170.53
2023-03-13T21:20:28.683Z,99171.84
2023-03-13T21:22:55.808Z,99170.91
2023-03-13T21:25:22.769Z,99171.91
2023-03-13T21:27:49.731Z,99179.75
2023-03-13T21:30:21.050Z,99180.97
2023-03-13T21:32:48.618Z,99178.19
2023-03-13T21:35:16.829Z,99180.81
2023-03-13T21:37:43.783Z,99179.41
2023-03-13T21:40:11.543Z,99189.09
2023-03-13T21:42:40.691Z,99180.41
2023-03-13T21:45:08.179Z,99179.56
2023-03-13T21:47:38.323Z,99184.69
2023-03-13T21:50:06.598Z,99175.56
2023-03-13T21:52:38.383Z,99168.94
2023-03-13T21:55:08.800Z,99176.94
2023-03-13T21:57:35.781Z,99176.09
2023-03-13T22:00:06.067Z,99173.66
2023-03-13T22:02:34.811Z,99169.94
2023-03-13T22:05:02.544Z,99177.78
2023-03-13T22:07:31.102Z,99159.69
2023-03-13T22:09:58.291Z,99160.78
2023-03-13T22:12:25.858Z,99160.31
2023-03-13T22:14:54.541Z,99160.13
2023-03-13T22:17:23.476Z,99146.13
2023-03-13T22:19:50.582Z,99144.81
2023-03-13T22:22:20.112Z,99140.22
2023-03-13T22:24:47.085Z,99144.56
2023-03-13T22:27:14.182Z,99150.50
2023-03-13T22:29:41.643Z,99136.72
2023-03-13T22:32:09.612Z,99140.34
2023-03-13T22:34:36.698Z,99127.38
2023-03-13T22:37:03.671Z,99120.47
2023-03-13T22:39:31.283Z,99123.91
2023-03-13T22:41:58.112Z,99121.47
2023-03-13T22:44:25.123Z,99128.47
2023-03-13T22:46:51.974Z,99117.94
2023-03-13T22:49:19.042Z,99115.13
2023-03-13T22:51:45.925Z,99114.47
2023-03-13T22:54:12.779Z,99108.25
2023-03-13T22:56:39.862Z,99109.06
2023-03-13T22:59:06.804Z,99113.38
2023-03-13T23:01:33.833Z,99103.00
2023-03-13T23:04:00.845Z,99096.75
2023-03-13T23:06:27.741Z,99096.94
2023-03-13T23:08:54.578Z,99088.19
2023-03-13T23:11:21.518Z,99095.91
2023-03-13T23:13:48.668Z,99088.91
2023-03-13T23:16:34.746Z,99087.78
2023-03-13T23:19:02.152Z,99077.25
2023-03-13T23:21:29.168Z,99079.97
2023-03-13T23:23:56.227Z,99062.13
2023-03-13T23:26:23.198Z,99068.94
2023-03-13T23:28:50.059Z,99060.81
2023-03-13T23:31:18.420Z,99057.53
2023-03-13T23:33:45.788Z,99061.47
2023-03-13T23:36:17.345Z,99048.41
2023-03-13T23:38:48.238Z,99050.09
2023-03-13T23:41:15.133Z,99042.97
2023-03-13T23:43:41.968Z,99040.91
2023-03-13T23:46:19.461Z,99040.72
2023-03-13T23:48:46.397Z,99037.00
2023-03-13T23:51:13.342Z,99037.19
2023-03-13T23:53:42.177Z,99030.53
2023-03-13T23:56:09.560Z,99019.06
2023-03-13T23:58:36.660Z,99015.69
